Česky Dansk Deutsch English Español Suomi Français Magyar Italiano Nederlands norsk Polski Português svenska Türkçe

 

Het Weer

Chateauroux (Frankrijk)

07:00, 21 augustus 2016 (GMT)

NWNNE
WE
SWSSE
Home            
Chateauroux Romorantin Bourges Avord Montlucon / Gueret Tours Nevers Poitiers Limoges Orleans Chateaudun Vichy Clermont-Ferrand Le Mans Niort Auxerre Chartres Saint-Yan Angers Brive Perigueux Cognac Melun

Om een weerknop op uw website of weblog te plaatsen, copieer onderstaande code en plak die in uw pagina. In het eerste vakje staat HTML-code, in het tweede vakje UBB-code.


Add to Google

Details

Wind speed:3 bf, 9 kn, 4.6 m/s, 10.4 miles/h, 16.7 km/h
Wind direction:W, 260°
Visibility:Greater than 10000 m, 10 km, 32800 ft, 6.2 miles
Clouds:Ein wenig bewölkt at 1300 ft, 396 m
Geschlossene Wolkendecke at 5800 ft, 1768 m
Temperature:16°C, 61°F
Dew-point:14°C, 57°F
Atmospheric pressure:1023 hPa, 767.3 mmHg, 30.21 inHg, 1.010 atm
Relative humidity:87.9 %
METAR:LFLX 210700Z AUTO 26009KT 9999 FEW013 OVC058 16/14 Q1023 NOSIG

Snelkoppelingen

Actuele weersinformatie van de hele wereld. Voeg locaties toe met het plus (+) symbool. Deze snelkoppelingen kunnen worden toegevoegd aan Google.

Lid van de Technetium groep

website free tracking
StatCounter NetStat W3C Validator

19-05-2022 05:14:38
astro.technetium.be money.technetium.be phote.technetium.be tafeltennistafel.technetium.be www.ligfiets.net